createdAt,value
2019-04-20T00:00:58.556Z,86.90
2019-04-20T00:04:01.097Z,87.10
2019-04-20T00:07:03.927Z,87.70
2019-04-20T00:10:10.975Z,88.30
2019-04-20T00:13:19.454Z,86.90
2019-04-20T00:16:12.635Z,89.30
2019-04-20T00:19:21.703Z,87.50
2019-04-20T00:22:34.925Z,86.60
2019-04-20T00:25:54.946Z,86.30
2019-04-20T00:29:07.055Z,86.10
2019-04-20T00:32:02.776Z,87.10
2019-04-20T00:34:57.882Z,87.60
2019-04-20T00:37:59.533Z,88.80
2019-04-20T00:41:05.616Z,88.60
2019-04-20T00:44:11.147Z,89.80
2019-04-20T00:47:16.947Z,90.20
2019-04-20T00:50:28.370Z,90.70
2019-04-20T00:53:22.865Z,91.10
2019-04-20T00:56:18.216Z,90.60
2019-04-20T00:59:35.490Z,90.60
2019-04-20T01:02:37.165Z,90.90
2019-04-20T01:05:54.075Z,91.40
2019-04-20T01:08:55.127Z,91.20
2019-04-20T01:11:56.653Z,91.40
2019-04-20T01:15:03.926Z,91.10
2019-04-20T01:18:01.713Z,91.00
2019-04-20T01:21:06.750Z,91.30
2019-04-20T01:24:08.352Z,91.10
2019-04-20T01:27:23.738Z,91.20
2019-04-20T01:30:23.841Z,91.50
2019-04-20T01:33:31.872Z,91.80
2019-04-20T01:36:42.959Z,92.00
2019-04-20T01:39:31.906Z,92.10
2019-04-20T01:42:27.531Z,92.00
2019-04-20T01:45:35.741Z,92.00
2019-04-20T01:48:35.597Z,92.30
2019-04-20T01:51:47.030Z,92.60
2019-04-20T01:55:02.587Z,92.40
2019-04-20T01:58:02.035Z,92.50
2019-04-20T02:01:00.399Z,92.40
2019-04-20T02:04:05.494Z,92.10
2019-04-20T02:07:08.256Z,92.00
2019-04-20T02:10:12.178Z,92.40
2019-04-20T02:13:13.019Z,92.30
2019-04-20T02:16:22.965Z,92.20
2019-04-20T02:19:32.160Z,92.30
2019-04-20T02:22:37.324Z,92.40
2019-04-20T02:25:24.961Z,92.50
2019-04-20T02:28:58.661Z,92.60
2019-04-20T02:35:10.928Z,93.40
2019-04-20T02:38:28.346Z,93.40
2019-04-20T02:41:18.111Z,93.50
2019-04-20T02:47:30.539Z,93.20
2019-04-20T02:50:30.493Z,93.00
2019-04-20T02:53:46.978Z,93.30
2019-04-20T02:56:39.881Z,93.50
2019-04-20T03:02:23.527Z,93.30
2019-04-20T03:05:25.682Z,93.60
2019-04-20T03:08:33.074Z,93.80
2019-04-20T03:11:49.934Z,94.00
2019-04-20T03:14:36.214Z,94.00
2019-04-20T03:17:49.346Z,93.90
2019-04-20T03:20:53.078Z,93.60
2019-04-20T03:24:02.151Z,93.70
2019-04-20T03:26:55.667Z,93.90
2019-04-20T03:30:03.728Z,94.00
2019-04-20T03:33:24.542Z,94.10
2019-04-20T03:36:22.224Z,93.90
2019-04-20T03:39:16.787Z,93.90
2019-04-20T03:41:58.831Z,93.70
2019-04-20T03:45:09.018Z,93.60
2019-04-20T03:48:16.122Z,93.70
2019-04-20T03:51:35.853Z,93.60
2019-04-20T03:54:30.962Z,94.00
2019-04-20T03:57:52.973Z,93.90
2019-04-20T04:01:12.661Z,93.70
2019-04-20T04:04:21.404Z,93.40
2019-04-20T04:07:08.058Z,93.10
2019-04-20T04:10:17.185Z,93.20
2019-04-20T04:13:27.378Z,93.20
2019-04-20T04:16:37.449Z,93.20
2019-04-20T04:19:36.824Z,92.90
2019-04-20T04:22:52.189Z,92.50
2019-04-20T04:25:55.726Z,92.60
2019-04-20T04:29:00.654Z,92.30
2019-04-20T04:32:12.784Z,91.80
2019-04-20T04:35:05.630Z,91.60
2019-04-20T04:38:06.980Z,91.50
2019-04-20T04:41:19.583Z,90.90
2019-04-20T04:44:14.999Z,90.00
2019-04-20T04:47:05.180Z,90.40
2019-04-20T04:50:12.992Z,90.10
2019-04-20T04:53:20.654Z,88.20
2019-04-20T04:56:17.069Z,86.90
2019-04-20T04:59:15.340Z,85.70
2019-04-20T05:02:17.854Z,83.00
2019-04-20T05:05:45.358Z,82.40
2019-04-20T05:08:31.671Z,80.70
2019-04-20T05:11:27.953Z,81.10
2019-04-20T05:14:41.801Z,83.10
2019-04-20T05:17:57.761Z,82.10
2019-04-20T05:20:58.473Z,79.00
2019-04-20T05:24:04.478Z,75.60
2019-04-20T05:27:30.063Z,74.10
2019-04-20T05:30:12.273Z,70.40
2019-04-20T05:33:25.607Z,68.30
2019-04-20T05:36:36.857Z,67.10
2019-04-20T05:39:39.903Z,66.80
2019-04-20T05:42:49.921Z,65.90
2019-04-20T05:45:41.319Z,64.20
2019-04-20T05:48:50.541Z,63.40
2019-04-20T05:51:55.527Z,61.50
2019-04-20T05:54:59.481Z,59.30
2019-04-20T05:58:02.007Z,58.50
2019-04-20T06:01:06.167Z,58.00
2019-04-20T06:04:07.597Z,56.10
2019-04-20T06:07:15.315Z,55.30
2019-04-20T06:10:22.027Z,54.80
2019-04-20T06:13:15.947Z,56.80
2019-04-20T06:16:23.802Z,57.70
2019-04-20T06:19:32.003Z,58.20
2019-04-20T06:26:17.288Z,55.00
2019-04-20T06:29:03.143Z,55.20
2019-04-20T06:32:10.969Z,54.50
2019-04-20T06:35:18.926Z,53.10
2019-04-20T06:42:02.258Z,52.10
2019-04-20T06:44:57.542Z,51.90
2019-04-20T06:47:55.256Z,50.80
2019-04-20T06:50:52.745Z,51.30
2019-04-20T06:53:49.641Z,50.00
2019-04-20T06:57:00.183Z,51.30
2019-04-20T07:00:10.334Z,48.90
2019-04-20T07:03:10.166Z,48.60
2019-04-20T07:06:32.144Z,48.60
2019-04-20T07:09:15.227Z,46.00
2019-04-20T07:12:12.589Z,45.90
2019-04-20T07:15:17.826Z,46.10
2019-04-20T07:18:22.996Z,42.70
2019-04-20T07:21:43.923Z,43.70
2019-04-20T07:24:40.380Z,44.00
2019-04-20T07:27:40.177Z,44.60
2019-04-20T07:30:46.356Z,44.20
2019-04-20T07:33:52.065Z,43.00
2019-04-20T07:36:57.409Z,44.10
2019-04-20T07:40:01.215Z,42.20
2019-04-20T07:43:00.235Z,41.00
2019-04-20T07:46:04.680Z,40.30
2019-04-20T07:49:07.686Z,39.30
2019-04-20T07:51:49.509Z,36.30
2019-04-20T07:55:32.970Z,35.50
2019-04-20T07:58:09.786Z,37.90
2019-04-20T08:01:38.552Z,34.90
2019-04-20T08:04:59.493Z,33.00
2019-04-20T08:07:57.589Z,32.10
2019-04-20T08:11:09.742Z,32.10
2019-04-20T08:14:18.228Z,28.70
2019-04-20T08:17:21.414Z,29.20
2019-04-20T08:20:17.132Z,29.40
2019-04-20T08:23:23.021Z,29.70
2019-04-20T08:26:14.024Z,29.10
2019-04-20T08:29:23.513Z,29.20
2019-04-20T08:32:38.931Z,31.30
2019-04-20T08:35:51.242Z,29.90
2019-04-20T08:39:06.471Z,30.30
2019-04-20T08:41:52.978Z,30.20
2019-04-20T08:45:00.130Z,29.20
2019-04-20T08:48:09.950Z,28.00
2019-04-20T08:50:57.759Z,29.00
2019-04-20T08:54:03.375Z,28.80
2019-04-20T08:56:53.660Z,29.20
2019-04-20T08:59:51.401Z,29.10
2019-04-20T09:03:00.882Z,29.10
2019-04-20T09:06:06.722Z,28.60
2019-04-20T09:09:33.172Z,26.80
2019-04-20T09:12:23.225Z,27.40
2019-04-20T09:15:08.234Z,27.40
2019-04-20T09:18:41.766Z,26.30
2019-04-20T09:21:46.258Z,28.30
2019-04-20T09:24:59.507Z,26.90
2019-04-20T09:28:07.487Z,28.10
2019-04-20T09:31:21.522Z,25.70
2019-04-20T09:34:33.734Z,25.20
2019-04-20T09:37:43.070Z,29.70
2019-04-20T09:40:48.248Z,25.70
2019-04-20T09:43:35.123Z,25.40
2019-04-20T09:46:41.289Z,26.60
2019-04-20T09:49:54.088Z,25.70
2019-04-20T09:52:57.075Z,25.90
2019-04-20T09:56:02.171Z,26.10
2019-04-20T09:59:09.913Z,24.40
2019-04-20T10:02:03.390Z,25.30
2019-04-20T10:04:57.643Z,26.00
2019-04-20T10:08:04.314Z,26.30
2019-04-20T10:11:05.661Z,24.70
2019-04-20T10:14:08.208Z,24.30
2019-04-20T10:17:09.709Z,23.50
2019-04-20T10:20:19.383Z,24.10
2019-04-20T10:23:14.412Z,23.40
2019-04-20T10:26:18.564Z,24.20
2019-04-20T10:29:19.629Z,24.00
2019-04-20T10:32:25.019Z,24.20
2019-04-20T10:35:25.561Z,23.10
2019-04-20T10:38:32.317Z,24.40
2019-04-20T10:41:44.545Z,23.90
2019-04-20T10:44:59.428Z,23.60
2019-04-20T10:48:01.128Z,23.10
2019-04-20T10:51:03.101Z,23.80
2019-04-20T10:54:04.735Z,23.40
2019-04-20T10:57:06.117Z,24.40
2019-04-20T11:00:10.165Z,23.60
2019-04-20T11:03:11.945Z,22.60
2019-04-20T11:06:14.494Z,23.70
2019-04-20T11:09:16.468Z,22.20
2019-04-20T11:12:20.089Z,22.10
2019-04-20T11:15:21.590Z,22.90
2019-04-20T11:18:23.062Z,21.70
2019-04-20T11:21:26.326Z,21.30
2019-04-20T11:24:28.153Z,20.00
2019-04-20T11:27:32.189Z,21.20
2019-04-20T11:30:34.104Z,20.40
2019-04-20T11:33:38.288Z,20.40
2019-04-20T11:36:41.115Z,20.50
2019-04-20T11:39:43.150Z,20.80
2019-04-20T11:42:47.936Z,21.30
2019-04-20T11:45:50.996Z,21.10
2019-04-20T11:48:55.327Z,20.80
2019-04-20T11:51:59.370Z,21.90
2019-04-20T11:55:02.294Z,21.90
2019-04-20T11:58:03.881Z,20.90
2019-04-20T12:01:28.054Z,20.20
2019-04-20T12:04:41.452Z,20.40
2019-04-20T12:07:38.832Z,20.20
2019-04-20T12:10:43.852Z,21.10
2019-04-20T12:13:44.886Z,21.40
2019-04-20T12:16:51.637Z,21.40
2019-04-20T12:19:53.242Z,21.40
2019-04-20T12:22:58.036Z,20.30
2019-04-20T12:25:59.794Z,21.00
2019-04-20T12:29:01.494Z,19.70
2019-04-20T12:32:05.246Z,19.60
2019-04-20T12:35:06.508Z,20.30
2019-04-20T12:38:07.787Z,20.00
2019-04-20T12:41:10.921Z,19.30
2019-04-20T12:44:14.157Z,19.90
2019-04-20T12:47:17.392Z,20.40
2019-04-20T12:50:19.326Z,21.00
2019-04-20T12:53:22.276Z,20.80
2019-04-20T12:56:24.466Z,19.50
2019-04-20T12:59:25.909Z,20.20
2019-04-20T13:02:29.773Z,18.70
2019-04-20T13:05:31.884Z,18.20
2019-04-20T13:08:36.847Z,18.70
2019-04-20T13:11:46.244Z,17.10
2019-04-20T13:14:58.170Z,18.30
2019-04-20T13:18:01.241Z,19.30
2019-04-20T13:21:05.065Z,19.30
2019-04-20T13:24:07.029Z,18.40
2019-04-20T13:27:09.054Z,18.20
2019-04-20T13:30:11.128Z,18.20
2019-04-20T13:33:13.869Z,18.80
2019-04-20T13:36:16.620Z,19.90
2019-04-20T13:39:18.183Z,18.90
2019-04-20T13:42:24.485Z,19.50
2019-04-20T13:45:22.578Z,19.70
2019-04-20T13:48:24.775Z,20.00
2019-04-20T13:51:26.580Z,20.00
2019-04-20T13:54:28.615Z,19.30
2019-04-20T13:57:49.857Z,19.50
2019-04-20T14:00:57.307Z,20.50
2019-04-20T14:04:04.887Z,21.00
2019-04-20T14:07:06.743Z,21.20
2019-04-20T14:10:09.208Z,22.60
2019-04-20T14:13:15.692Z,22.70
2019-04-20T14:16:16.546Z,23.00
2019-04-20T14:19:18.929Z,23.70
2019-04-20T14:22:20.869Z,23.70
2019-04-20T14:25:24.906Z,24.50
2019-04-20T14:28:27.032Z,24.30
2019-04-20T14:31:29.997Z,23.80
2019-04-20T14:34:35.103Z,23.40
2019-04-20T14:37:36.852Z,23.10
2019-04-20T14:40:38.370Z,22.60
2019-04-20T14:43:40.303Z,23.90
2019-04-20T14:46:42.045Z,24.00
2019-04-20T14:49:46.526Z,23.30
2019-04-20T14:52:47.698Z,24.80
2019-04-20T14:55:49.400Z,24.60
2019-04-20T14:58:59.658Z,25.70
2019-04-20T15:02:10.529Z,25.60
2019-04-20T15:05:12.879Z,25.90
2019-04-20T15:08:16.465Z,26.60
2019-04-20T15:11:18.859Z,26.80
2019-04-20T15:14:20.703Z,27.60
2019-04-20T15:17:25.554Z,27.60
2019-04-20T15:20:31.931Z,27.30
2019-04-20T15:23:35.344Z,27.60
2019-04-20T15:26:38.364Z,27.70
2019-04-20T15:29:40.183Z,27.90
2019-04-20T15:32:42.993Z,27.10
2019-04-20T15:35:44.456Z,25.80
2019-04-20T15:38:47.224Z,25.20
2019-04-20T15:41:49.562Z,25.00
2019-04-20T15:44:51.504Z,24.70
2019-04-20T15:47:54.183Z,25.30
2019-04-20T15:50:56.119Z,25.50
2019-04-20T15:53:59.759Z,25.90
2019-04-20T15:57:09.783Z,26.80
2019-04-20T16:00:06.821Z,27.50
2019-04-20T16:03:12.951Z,28.10
2019-04-20T16:06:16.984Z,28.20
2019-04-20T16:09:17.952Z,28.80
2019-04-20T16:12:20.717Z,28.50
2019-04-20T16:15:22.302Z,28.20
2019-04-20T16:18:25.038Z,28.00
2019-04-20T16:21:29.623Z,28.70
2019-04-20T16:24:32.957Z,27.80
2019-04-20T16:27:38.783Z,26.50
2019-04-20T16:30:43.411Z,25.50
2019-04-20T16:33:46.362Z,26.30
2019-04-20T16:36:53.005Z,26.50
2019-04-20T16:39:54.636Z,26.80
2019-04-20T16:42:56.417Z,27.70
2019-04-20T16:46:01.348Z,28.60
2019-04-20T16:49:03.201Z,28.80
2019-04-20T16:52:05.211Z,29.40
2019-04-20T16:55:08.091Z,29.70
2019-04-20T16:58:10.067Z,29.50
2019-04-20T17:01:11.847Z,30.00
2019-04-20T17:04:18.420Z,30.80
2019-04-20T17:07:18.629Z,31.30
2019-04-20T17:10:22.375Z,31.70
2019-04-20T17:13:35.086Z,33.10
2019-04-20T17:16:28.518Z,34.10
2019-04-20T17:19:31.356Z,36.20
2019-04-20T17:22:32.784Z,37.10
2019-04-20T17:25:34.448Z,37.30
2019-04-20T17:28:55.552Z,39.50
2019-04-20T17:31:59.182Z,40.20
2019-04-20T17:35:15.764Z,41.40
2019-04-20T17:38:04.761Z,42.90
2019-04-20T17:41:29.218Z,43.20
2019-04-20T17:44:24.711Z,44.10
2019-04-20T17:47:31.357Z,45.00
2019-04-20T17:50:30.377Z,44.30
2019-04-20T17:53:47.443Z,44.40
2019-04-20T17:56:42.403Z,45.00
2019-04-20T17:59:53.199Z,46.00
2019-04-20T18:03:07.902Z,46.40
2019-04-20T18:06:17.331Z,46.90
2019-04-20T18:09:16.796Z,47.50
2019-04-20T18:12:09.875Z,47.80
2019-04-20T18:15:27.997Z,49.10
2019-04-20T18:18:39.041Z,49.50
2019-04-20T18:21:33.279Z,50.20
2019-04-20T18:24:59.658Z,50.00
2019-04-20T18:27:57.460Z,50.70
2019-04-20T18:30:51.655Z,50.40
2019-04-20T18:33:46.857Z,50.90
2019-04-20T18:36:49.509Z,50.80
2019-04-20T18:39:57.284Z,52.10
2019-04-20T18:43:01.730Z,53.60
2019-04-20T18:46:12.434Z,53.20
2019-04-20T18:49:18.357Z,54.50
2019-04-20T18:52:06.030Z,54.10
2019-04-20T18:55:17.394Z,54.30
2019-04-20T18:58:13.236Z,55.00
2019-04-20T19:01:15.026Z,54.50
2019-04-20T19:04:17.675Z,54.50
2019-04-20T19:07:19.798Z,54.90
2019-04-20T19:10:27.570Z,55.20
2019-04-20T19:13:46.198Z,57.30
2019-04-20T19:17:18.460Z,57.00
2019-04-20T19:20:26.466Z,56.80
2019-04-20T19:23:27.029Z,56.80
2019-04-20T19:26:29.955Z,57.00
2019-04-20T19:29:37.584Z,59.00
2019-04-20T19:32:49.872Z,60.90
2019-04-20T19:35:50.112Z,62.20
2019-04-20T19:38:52.264Z,62.90
2019-04-20T19:41:52.628Z,63.40
2019-04-20T19:45:01.897Z,62.30
2019-04-20T19:48:09.508Z,61.90
2019-04-20T19:51:20.267Z,61.40
2019-04-20T19:54:22.443Z,60.80
2019-04-20T19:57:22.509Z,60.40
2019-04-20T20:00:08.249Z,61.20
2019-04-20T20:03:11.960Z,60.00
2019-04-20T20:06:22.512Z,60.90
2019-04-20T20:09:20.012Z,61.70
2019-04-20T20:12:21.479Z,60.90
2019-04-20T20:15:29.623Z,61.30
2019-04-20T20:18:39.254Z,61.00
2019-04-20T20:21:42.347Z,61.60
2019-04-20T20:24:33.350Z,62.10
2019-04-20T20:27:45.298Z,62.60
2019-04-20T20:30:55.198Z,63.90
2019-04-20T20:33:54.198Z,64.30
2019-04-20T20:36:54.602Z,64.60
2019-04-20T20:39:59.730Z,63.90
2019-04-20T20:43:06.744Z,63.00
2019-04-20T20:46:05.299Z,62.90
2019-04-20T20:49:16.189Z,63.10
2019-04-20T20:52:21.912Z,63.20
2019-04-20T20:55:19.673Z,63.10
2019-04-20T20:58:18.178Z,64.60
2019-04-20T21:01:22.226Z,66.50
2019-04-20T21:04:19.559Z,65.90
2019-04-20T21:07:20.886Z,65.30
2019-04-20T21:10:30.047Z,66.20
2019-04-20T21:13:34.549Z,67.20
2019-04-20T21:16:31.865Z,69.00
2019-04-20T21:19:52.521Z,69.00
2019-04-20T21:22:57.545Z,67.40
2019-04-20T21:25:44.212Z,66.50
2019-04-20T21:29:03.872Z,68.30
2019-04-20T21:32:11.874Z,70.30
2019-04-20T21:35:12.831Z,70.40
2019-04-20T21:38:14.780Z,70.40
2019-04-20T21:41:18.611Z,67.30
2019-04-20T21:44:24.717Z,68.10
2019-04-20T21:47:32.468Z,67.20
2019-04-20T21:50:50.675Z,66.80
2019-04-20T21:53:33.593Z,67.10
2019-04-20T21:56:39.221Z,66.90
2019-04-20T21:59:43.215Z,67.90
2019-04-20T22:02:48.389Z,69.80
2019-04-20T22:05:46.498Z,70.90
2019-04-20T22:08:51.862Z,70.50
2019-04-20T22:11:51.898Z,73.20
2019-04-20T22:14:58.801Z,73.60
2019-04-20T22:18:01.162Z,73.50
2019-04-20T22:21:09.393Z,75.30
2019-04-20T22:24:14.944Z,75.40
2019-04-20T22:27:15.818Z,73.00
2019-04-20T22:30:10.500Z,71.60
2019-04-20T22:33:22.733Z,71.70
2019-04-20T22:36:20.214Z,70.40
2019-04-20T22:39:35.033Z,70.40
2019-04-20T22:42:37.831Z,69.90
2019-04-20T22:45:39.751Z,69.20
2019-04-20T22:48:45.884Z,68.10
2019-04-20T22:51:54.948Z,66.60
2019-04-20T22:55:07.264Z,66.80
2019-04-20T22:57:59.149Z,67.30
2019-04-20T23:00:57.862Z,69.00
2019-04-20T23:03:54.959Z,69.30
2019-04-20T23:06:57.303Z,69.00
2019-04-20T23:10:01.195Z,70.30
2019-04-20T23:13:03.219Z,71.40
2019-04-20T23:16:07.076Z,72.00
2019-04-20T23:19:08.045Z,72.20
2019-04-20T23:22:13.486Z,72.60
2019-04-20T23:25:13.369Z,72.00
2019-04-20T23:28:18.031Z,74.10
2019-04-20T23:31:20.582Z,66.80
2019-04-20T23:34:25.487Z,68.50
2019-04-20T23:37:30.115Z,66.30
2019-04-20T23:40:27.834Z,67.30
2019-04-20T23:43:33.709Z,66.20
2019-04-20T23:46:37.024Z,68.10
2019-04-20T23:49:58.338Z,69.00
2019-04-20T23:53:01.353Z,69.00
2019-04-20T23:55:45.718Z,70.80
2019-04-20T23:58:51.074Z,70.20
